Time;durP1;ratioP1;P1;durP2;ratioP2;P2;SDS_P1;SDS_P2;PMS_P1;PMS_P2;Temp;Humidity;BMP_temperature;BMP_pressure;BME280_temperature;BME280_humidity;BME280_pressure;Samples;Min_cycle;Max_cycle;Signal;HPM_P1;HPM_P2
2022/10/16 00:01:57;;;;;;;;;;;14.10;83.00;;;;;;5036437;28;19913;-75
2022/10/16 00:04:23;;;;;;;;;;;14.00;83.40;;;;;;5036192;28;19917;-77
2022/10/16 00:06:48;;;;;;;;;;;14.00;83.80;;;;;;5027124;28;19970;-76
2022/10/16 00:09:14;;;;;;;;;;;13.90;83.90;;;;;;5008789;28;19932;-76
2022/10/16 00:11:40;;;;;;;;;;;13.90;84.10;;;;;;5024625;28;19913;-75
2022/10/16 00:14:08;;;;;;;;;;;13.90;84.30;;;;;;5024700;28;19916;-77
2022/10/16 00:16:33;;;;;;;;;;;13.90;84.40;;;;;;5025403;28;20474;-78
2022/10/16 00:18:59;;;;;;;;;;;13.80;84.70;;;;;;5023999;28;19959;-75
2022/10/16 00:21:27;;;;;;;;;;;13.90;84.70;;;;;;5007993;28;20004;-75
2022/10/16 00:23:58;;;;;;;;;;;13.80;84.80;;;;;;5024772;28;20020;-75
2022/10/16 00:26:25;;;;;;;;;;;13.80;85.00;;;;;;5023050;28;20341;-75
2022/10/16 00:28:51;;;;;;;;;;;13.80;85.10;;;;;;5025816;28;19915;-75
2022/10/16 00:31:17;;;;;;;;;;;13.70;85.30;;;;;;5025388;28;19917;-76
2022/10/16 00:33:43;;;;;;;;;;;13.70;85.50;;;;;;5024690;28;20384;-76
2022/10/16 00:36:13;;;;;;;;;;;13.70;85.70;;;;;;5026066;28;19955;-75
2022/10/16 00:38:39;;;;;;;;;;;13.70;85.70;;;;;;5024491;28;20348;-76
2022/10/16 00:41:05;;;;;;;;;;;13.60;85.90;;;;;;5025547;28;19916;-75
2022/10/16 00:43:50;;;;;;;;;;;13.70;86.00;;;;;;5024891;28;19956;-75
2022/10/16 00:46:16;;;;;;;;;;;13.60;86.10;;;;;;5024807;28;20059;-75
2022/10/16 00:48:43;;;;;;;;;;;13.60;86.10;;;;;;5025989;28;20011;-76
2022/10/16 00:51:09;;;;;;;;;;;13.60;86.30;;;;;;5024807;28;19917;-75
2022/10/16 00:53:35;;;;;;;;;;;13.60;86.40;;;;;;5025108;28;19959;-76
2022/10/16 00:56:01;;;;;;;;;;;13.60;86.50;;;;;;5024848;28;20054;-76
2022/10/16 00:58:26;;;;;;;;;;;13.60;86.50;;;;;;5023717;28;19928;-76
2022/10/16 01:00:52;;;;;;;;;;;13.60;86.60;;;;;;5025614;28;19991;-77
2022/10/16 01:03:28;;;;;;;;;;;13.60;86.60;;;;;;5024612;28;19943;-76
2022/10/16 01:06:08;;;;;;;;;;;13.60;86.60;;;;;;5010223;28;19913;-77
2022/10/16 01:08:39;;;;;;;;;;;13.60;86.70;;;;;;5024299;28;19920;-76
2022/10/16 01:11:25;;;;;;;;;;;13.60;86.70;;;;;;5017795;28;19992;-76
2022/10/16 01:13:55;;;;;;;;;;;13.60;86.90;;;;;;5024608;28;19912;-76
2022/10/16 01:16:42;;;;;;;;;;;13.60;87.00;;;;;;5019838;28;19936;-75
2022/10/16 01:19:29;;;;;;;;;;;13.60;87.10;;;;;;5031294;28;19922;-75
2022/10/16 01:21:55;;;;;;;;;;;13.60;87.10;;;;;;5012426;28;20022;-76
2022/10/16 01:24:32;;;;;;;;;;;13.60;87.10;;;;;;5015303;28;19936;-76
2022/10/16 01:27:16;;;;;;;;;;;13.60;87.20;;;;;;5025056;28;19913;-77
2022/10/16 01:29:48;;;;;;;;;;;13.60;87.20;;;;;;5021445;28;19962;-75
2022/10/16 01:32:23;;;;;;;;;;;13.60;87.20;;;;;;5025163;28;20403;-76
2022/10/16 01:35:07;;;;;;;;;;;13.60;87.20;;;;;;5022752;28;19913;-76
2022/10/16 01:37:51;;;;;;;;;;;13.60;87.20;;;;;;5004476;28;19912;-76
2022/10/16 01:40:17;;;;;;;;;;;13.60;87.10;;;;;;5020977;28;20380;-76
2022/10/16 01:42:46;;;;;;;;;;;13.60;87.30;;;;;;5025044;28;20361;-77
2022/10/16 01:45:13;;;;;;;;;;;13.60;87.20;;;;;;5010572;28;19963;-76
2022/10/16 01:47:39;;;;;;;;;;;13.60;87.30;;;;;;5006876;28;19956;-77
2022/10/16 01:50:06;;;;;;;;;;;13.60;87.20;;;;;;5018256;28;20423;-77
2022/10/16 01:52:34;;;;;;;;;;;13.60;87.30;;;;;;5022586;28;19917;-75
2022/10/16 01:55:00;;;;;;;;;;;13.60;87.30;;;;;;5021934;28;19917;-76
2022/10/16 01:57:27;;;;;;;;;;;13.60;87.40;;;;;;5024332;28;20472;-76
2022/10/16 01:59:56;;;;;;;;;;;13.60;87.50;;;;;;5024034;28;19921;-76
2022/10/16 02:02:22;;;;;;;;;;;13.60;87.40;;;;;;5023415;28;20349;-76
2022/10/16 02:05:17;;;;;;;;;;;13.60;87.50;;;;;;5018458;28;19945;-75
2022/10/16 02:07:43;;;;;;;;;;;13.60;87.50;;;;;;4999360;28;19921;-76
2022/10/16 02:10:09;;;;;;;;;;;13.60;87.40;;;;;;5004625;28;19924;-76
2022/10/16 02:12:36;;;;;;;;;;;13.50;87.50;;;;;;5022429;28;20055;-76
2022/10/16 02:15:02;;;;;;;;;;;13.50;87.50;;;;;;5019206;28;19970;-76
2022/10/16 02:17:28;;;;;;;;;;;13.60;87.50;;;;;;5021233;28;19912;-75
2022/10/16 02:19:54;;;;;;;;;;;13.50;87.50;;;;;;5014460;28;19924;-76
2022/10/16 02:22:27;;;;;;;;;;;13.50;87.50;;;;;;5022157;28;19917;-75
2022/10/16 02:25:01;;;;;;;;;;;13.40;87.50;;;;;;5022912;28;19921;-75
2022/10/16 02:27:38;;;;;;;;;;;13.40;87.60;;;;;;5018089;28;19938;-77
2022/10/16 02:30:07;;;;;;;;;;;13.40;87.60;;;;;;5022286;28;19932;-77
2022/10/16 02:32:33;;;;;;;;;;;13.40;87.70;;;;;;5008002;28;20294;-77
2022/10/16 02:35:00;;;;;;;;;;;13.40;87.70;;;;;;5038049;28;19909;-77
2022/10/16 02:37:26;;;;;;;;;;;13.40;87.70;;;;;;5021243;28;20404;-76
2022/10/16 02:39:52;;;;;;;;;;;13.40;87.80;;;;;;5023758;28;20328;-78
2022/10/16 02:42:18;;;;;;;;;;;13.40;87.70;;;;;;5023643;28;19937;-77
2022/10/16 02:44:44;;;;;;;;;;;13.40;87.70;;;;;;5024326;28;19917;-77
2022/10/16 02:47:09;;;;;;;;;;;13.40;87.70;;;;;;5021287;28;19913;-78
2022/10/16 02:49:35;;;;;;;;;;;13.30;87.80;;;;;;5015695;28;19916;-75
2022/10/16 02:52:00;;;;;;;;;;;13.30;87.80;;;;;;5016797;28;19909;-76
2022/10/16 02:54:26;;;;;;;;;;;13.30;87.80;;;;;;5023651;28;19913;-77
2022/10/16 02:56:52;;;;;;;;;;;13.30;87.80;;;;;;5022506;28;19970;-77
2022/10/16 02:59:17;;;;;;;;;;;13.30;88.00;;;;;;5018975;28;19996;-77
2022/10/16 03:01:43;;;;;;;;;;;13.30;87.90;;;;;;5019395;28;20357;-76
2022/10/16 03:04:08;;;;;;;;;;;13.30;88.00;;;;;;5022104;28;20364;-77
2022/10/16 03:06:34;;;;;;;;;;;13.30;88.00;;;;;;5023863;28;20238;-77
2022/10/16 03:09:00;;;;;;;;;;;13.20;88.00;;;;;;5022400;28;19913;-77
2022/10/16 03:11:26;;;;;;;;;;;13.20;88.00;;;;;;5005860;28;19905;-76
2022/10/16 03:13:51;;;;;;;;;;;13.20;88.00;;;;;;5013303;28;19924;-75
2022/10/16 03:16:17;;;;;;;;;;;13.20;88.10;;;;;;5023200;28;20269;-76
2022/10/16 03:18:42;;;;;;;;;;;13.20;88.20;;;;;;5021254;28;19920;-77
2022/10/16 03:21:08;;;;;;;;;;;13.20;88.10;;;;;;5023475;28;19924;-75
2022/10/16 03:23:33;;;;;;;;;;;13.10;88.00;;;;;;4999892;28;19929;-76
2022/10/16 03:25:59;;;;;;;;;;;13.20;88.00;;;;;;5022833;28;19909;-77
2022/10/16 03:28:24;;;;;;;;;;;13.20;88.00;;;;;;5022584;28;19989;-77
2022/10/16 03:30:50;;;;;;;;;;;13.20;88.10;;;;;;5022402;28;19913;-76
2022/10/16 03:33:15;;;;;;;;;;;13.20;88.10;;;;;;5021514;28;19925;-76
2022/10/16 03:35:41;;;;;;;;;;;13.20;88.10;;;;;;5022511;28;19909;-77
2022/10/16 03:38:07;;;;;;;;;;;13.10;88.10;;;;;;5024007;28;20476;-76
2022/10/16 03:40:32;;;;;;;;;;;13.10;88.10;;;;;;5016536;28;20002;-75
2022/10/16 03:42:58;;;;;;;;;;;13.10;88.20;;;;;;5022659;28;19921;-75
2022/10/16 03:45:24;;;;;;;;;;;13.10;88.10;;;;;;5027314;28;20276;-76
2022/10/16 03:47:49;;;;;;;;;;;13.10;88.00;;;;;;5034561;28;19913;-75
2022/10/16 03:50:15;;;;;;;;;;;13.10;88.00;;;;;;5037603;28;19913;-76
2022/10/16 03:52:40;;;;;;;;;;;13.10;88.10;;;;;;5022582;28;20161;-76
2022/10/16 03:55:06;;;;;;;;;;;13.10;88.30;;;;;;5025901;28;19971;-76
2022/10/16 03:57:32;;;;;;;;;;;13.00;88.30;;;;;;5027007;28;19913;-76
2022/10/16 03:59:57;;;;;;;;;;;13.00;88.30;;;;;;5021567;28;19917;-75
2022/10/16 04:02:23;;;;;;;;;;;13.00;88.30;;;;;;5010187;28;20296;-76
2022/10/16 04:04:48;;;;;;;;;;;13.00;88.30;;;;;;5025761;28;20275;-75
2022/10/16 04:07:14;;;;;;;;;;;13.00;88.40;;;;;;5022174;28;19913;-76
2022/10/16 04:09:39;;;;;;;;;;;12.90;88.40;;;;;;5025694;28;19913;-76
2022/10/16 04:12:05;;;;;;;;;;;12.90;88.50;;;;;;5009148;28;20000;-75
2022/10/16 04:14:30;;;;;;;;;;;12.90;88.50;;;;;;5022770;28;20450;-75
2022/10/16 04:16:56;;;;;;;;;;;12.90;88.50;;;;;;4999046;28;20011;-75
2022/10/16 04:19:22;;;;;;;;;;;12.90;88.50;;;;;;5025708;28;19920;-77
2022/10/16 04:21:47;;;;;;;;;;;12.90;88.50;;;;;;5009389;28;20441;-76
2022/10/16 04:24:13;;;;;;;;;;;12.80;88.60;;;;;;5018726;28;19956;-74
2022/10/16 04:26:38;;;;;;;;;;;12.90;88.50;;;;;;5008660;28;20344;-75
2022/10/16 04:29:04;;;;;;;;;;;12.80;88.60;;;;;;5007095;28;19913;-76
2022/10/16 04:31:29;;;;;;;;;;;12.90;88.60;;;;;;5023454;28;20379;-76
2022/10/16 04:33:55;;;;;;;;;;;12.90;88.60;;;;;;5024668;28;19920;-77
2022/10/16 04:36:21;;;;;;;;;;;12.80;88.50;;;;;;5024778;28;20368;-77
2022/10/16 04:38:46;;;;;;;;;;;12.80;88.70;;;;;;5025895;28;20480;-76
2022/10/16 04:41:12;;;;;;;;;;;12.80;88.70;;;;;;5019898;28;19956;-75
2022/10/16 04:43:37;;;;;;;;;;;12.80;88.80;;;;;;5021433;28;19932;-78
2022/10/16 04:46:04;;;;;;;;;;;12.80;88.70;;;;;;5024754;28;20003;-76
2022/10/16 04:48:30;;;;;;;;;;;12.80;88.70;;;;;;5006532;28;19988;-77
2022/10/16 04:50:55;;;;;;;;;;;12.80;88.70;;;;;;5025299;28;20011;-78
2022/10/16 04:53:21;;;;;;;;;;;12.80;88.70;;;;;;5025146;28;19909;-77
2022/10/16 04:55:47;;;;;;;;;;;12.90;88.90;;;;;;5025085;28;19923;-76
2022/10/16 04:58:12;;;;;;;;;;;12.90;88.80;;;;;;5025816;28;19919;-76
2022/10/16 05:00:38;;;;;;;;;;;12.90;88.80;;;;;;5007204;28;19916;-77
2022/10/16 05:03:07;;;;;;;;;;;13.00;88.70;;;;;;5028417;28;20251;-77
2022/10/16 05:05:32;;;;;;;;;;;13.00;88.80;;;;;;5022167;28;19920;-76
2022/10/16 05:07:58;;;;;;;;;;;13.00;88.70;;;;;;5027216;28;20398;-76
2022/10/16 05:10:23;;;;;;;;;;;13.10;88.60;;;;;;5023610;28;19920;-77
2022/10/16 05:12:49;;;;;;;;;;;13.10;88.60;;;;;;5025318;28;20264;-76
2022/10/16 05:15:15;;;;;;;;;;;13.10;88.60;;;;;;5024067;28;20319;-76
2022/10/16 05:17:40;;;;;;;;;;;13.10;88.50;;;;;;5024834;28;19913;-76
2022/10/16 05:20:06;;;;;;;;;;;13.10;88.60;;;;;;5023181;28;19913;-74
2022/10/16 05:22:31;;;;;;;;;;;13.10;88.50;;;;;;4998376;28;20258;-75
2022/10/16 05:24:57;;;;;;;;;;;13.20;88.50;;;;;;5024591;28;19933;-76
2022/10/16 05:27:23;;;;;;;;;;;13.20;88.30;;;;;;5006780;28;20258;-76
2022/10/16 05:29:48;;;;;;;;;;;13.30;88.20;;;;;;5024233;28;19981;-78
2022/10/16 05:32:17;;;;;;;;;;;13.30;88.00;;;;;;5022991;28;19917;-75
2022/10/16 05:34:42;;;;;;;;;;;13.30;88.10;;;;;;5006948;28;19913;-76
2022/10/16 05:37:08;;;;;;;;;;;13.20;88.00;;;;;;5022864;28;19996;-75
2022/10/16 05:39:34;;;;;;;;;;;13.20;88.10;;;;;;5023942;28;20410;-76
2022/10/16 05:42:00;;;;;;;;;;;13.20;88.10;;;;;;5006056;28;20392;-76
2022/10/16 05:44:25;;;;;;;;;;;13.20;88.00;;;;;;5022269;28;19955;-77
2022/10/16 05:46:51;;;;;;;;;;;13.10;88.10;;;;;;5019313;28;19959;-77
2022/10/16 05:49:16;;;;;;;;;;;13.10;88.10;;;;;;4999627;28;19914;-78
2022/10/16 05:51:42;;;;;;;;;;;13.10;88.10;;;;;;5014057;28;19944;-78
2022/10/16 05:54:08;;;;;;;;;;;13.10;88.20;;;;;;5022934;28;20269;-76
2022/10/16 05:56:34;;;;;;;;;;;13.10;88.20;;;;;;5017939;28;19962;-78
2022/10/16 05:58:59;;;;;;;;;;;13.10;88.30;;;;;;5010876;28;20408;-77
2022/10/16 06:01:25;;;;;;;;;;;13.00;88.20;;;;;;5018122;28;19913;-77
2022/10/16 06:03:51;;;;;;;;;;;13.00;88.30;;;;;;5013931;28;19922;-76
2022/10/16 06:06:19;;;;;;;;;;;13.00;88.30;;;;;;5022935;28;19916;-77
2022/10/16 06:08:45;;;;;;;;;;;12.90;88.40;;;;;;5017904;28;20316;-75
2022/10/16 06:11:12;;;;;;;;;;;12.90;88.50;;;;;;5021771;28;19909;-76
2022/10/16 06:13:38;;;;;;;;;;;12.90;88.50;;;;;;5022270;28;19924;-75
2022/10/16 06:16:04;;;;;;;;;;;12.90;88.60;;;;;;5004863;28;19925;-78
2022/10/16 06:18:30;;;;;;;;;;;12.80;88.60;;;;;;5021018;28;19920;-76
2022/10/16 06:20:56;;;;;;;;;;;12.90;88.70;;;;;;5018632;28;19914;-77
2022/10/16 06:23:22;;;;;;;;;;;12.90;88.60;;;;;;5027094;28;19924;-76
2022/10/16 06:25:47;;;;;;;;;;;12.90;88.60;;;;;;5021417;28;20276;-77
2022/10/16 06:28:13;;;;;;;;;;;12.90;88.60;;;;;;5019757;28;19925;-78
2022/10/16 06:30:39;;;;;;;;;;;12.90;88.60;;;;;;5006283;28;20818;-75
2022/10/16 06:33:04;;;;;;;;;;;12.90;88.60;;;;;;5022622;28;19913;-76
2022/10/16 06:35:31;;;;;;;;;;;12.90;88.50;;;;;;5020257;28;20238;-76
2022/10/16 06:37:57;;;;;;;;;;;12.80;88.50;;;;;;5019185;28;19913;-78
2022/10/16 06:40:23;;;;;;;;;;;12.80;88.60;;;;;;5020079;28;19932;-77
2022/10/16 06:42:48;;;;;;;;;;;12.90;88.60;;;;;;5024786;28;19909;-77
2022/10/16 06:45:14;;;;;;;;;;;12.80;88.60;;;;;;5006593;28;19924;-77
2022/10/16 06:47:39;;;;;;;;;;;12.90;88.50;;;;;;5004809;28;20237;-77
2022/10/16 06:50:06;;;;;;;;;;;12.90;88.60;;;;;;5022284;28;19913;-77
2022/10/16 06:52:32;;;;;;;;;;;13.00;88.50;;;;;;5002677;28;19913;-78
2022/10/16 06:54:57;;;;;;;;;;;13.00;88.50;;;;;;5017776;28;19917;-80
2022/10/16 06:57:23;;;;;;;;;;;12.90;88.50;;;;;;5001306;28;20345;-79
2022/10/16 06:59:48;;;;;;;;;;;13.00;88.50;;;;;;5015737;28;20012;-79
2022/10/16 07:02:14;;;;;;;;;;;13.00;88.50;;;;;;5016365;28;19909;-78
2022/10/16 07:04:40;;;;;;;;;;;13.00;88.50;;;;;;5014707;28;19917;-79
2022/10/16 07:07:05;;;;;;;;;;;13.00;88.50;;;;;;5019069;28;19913;-77
2022/10/16 07:09:31;;;;;;;;;;;13.10;88.50;;;;;;5018534;28;20353;-77
2022/10/16 07:11:56;;;;;;;;;;;13.10;88.40;;;;;;5001638;28;19909;-77
2022/10/16 07:14:22;;;;;;;;;;;13.10;88.40;;;;;;5020439;28;20345;-80
2022/10/16 07:16:48;;;;;;;;;;;13.10;88.30;;;;;;5022667;28;20243;-77
2022/10/16 07:19:15;;;;;;;;;;;13.10;88.20;;;;;;5026146;28;20072;-79
2022/10/16 07:21:41;;;;;;;;;;;13.20;88.20;;;;;;5024040;28;19913;-79
2022/10/16 07:24:07;;;;;;;;;;;13.20;88.20;;;;;;5024407;28;19921;-81
2022/10/16 07:26:34;;;;;;;;;;;13.30;88.20;;;;;;5026843;28;19920;-76
2022/10/16 07:29:00;;;;;;;;;;;13.30;88.10;;;;;;5008470;28;19961;-81
2022/10/16 07:31:26;;;;;;;;;;;13.40;87.90;;;;;;5025986;28;20444;-82
2022/10/16 07:33:52;;;;;;;;;;;13.50;87.80;;;;;;5026630;28;19929;-80
2022/10/16 07:36:18;;;;;;;;;;;13.50;87.60;;;;;;5022490;28;19917;-76
2022/10/16 07:38:44;;;;;;;;;;;13.60;87.50;;;;;;5047213;28;19971;-75
2022/10/16 07:41:12;;;;;;;;;;;13.60;87.40;;;;;;5013355;28;20300;-80
2022/10/16 07:43:38;;;;;;;;;;;13.60;87.40;;;;;;5022826;28;19982;-82
2022/10/16 07:46:04;;;;;;;;;;;13.70;87.30;;;;;;5023685;28;19905;-82
2022/10/16 07:48:30;;;;;;;;;;;13.80;87.10;;;;;;5020448;28;19920;-85
2022/10/16 07:50:59;;;;;;;;;;;13.90;86.70;;;;;;5021505;28;19913;-82
2022/10/16 07:53:25;;;;;;;;;;;14.00;86.60;;;;;;5021761;28;20451;-80
2022/10/16 07:55:51;;;;;;;;;;;14.10;86.50;;;;;;5027804;28;19920;-83
2022/10/16 07:58:17;;;;;;;;;;;14.20;86.20;;;;;;5011539;28;19972;-83
2022/10/16 08:00:42;;;;;;;;;;;14.30;85.70;;;;;;4999845;28;19909;-83
2022/10/16 08:03:08;;;;;;;;;;;14.40;85.50;;;;;;5025638;28;20466;-84
2022/10/16 08:05:34;;;;;;;;;;;14.60;85.30;;;;;;5019326;28;19955;-80
2022/10/16 08:08:00;;;;;;;;;;;14.60;84.90;;;;;;5006084;28;19913;-84
2022/10/16 08:10:26;;;;;;;;;;;14.70;84.40;;;;;;5015011;28;19992;-83
2022/10/16 08:12:52;;;;;;;;;;;14.80;83.80;;;;;;5011300;28;20256;-83
2022/10/16 08:15:18;;;;;;;;;;;15.00;83.30;;;;;;5005121;28;20020;-83
2022/10/16 08:17:44;;;;;;;;;;;15.00;82.70;;;;;;5019729;28;20242;-83
2022/10/16 08:20:10;;;;;;;;;;;15.10;82.50;;;;;;5015886;28;19914;-80
2022/10/16 08:22:35;;;;;;;;;;;15.10;82.60;;;;;;5016336;28;19913;-79
2022/10/16 08:25:01;;;;;;;;;;;15.10;82.60;;;;;;5019149;28;20012;-81
2022/10/16 08:27:31;;;;;;;;;;;15.10;82.60;;;;;;5004383;28;19964;-84
2022/10/16 08:29:57;;;;;;;;;;;15.10;82.60;;;;;;5021609;28;19960;-82
2022/10/16 08:32:22;;;;;;;;;;;15.30;82.50;;;;;;5017960;28;19948;-84
2022/10/16 08:34:48;;;;;;;;;;;15.50;82.40;;;;;;5016089;28;19917;-83
2022/10/16 08:37:14;;;;;;;;;;;15.80;81.90;;;;;;5015445;28;20003;-82
2022/10/16 08:39:39;;;;;;;;;;;16.10;80.80;;;;;;5023314;28;19920;-83
2022/10/16 08:42:23;;;;;;;;;;;16.20;80.10;;;;;;5018512;28;19916;-80
2022/10/16 08:45:05;;;;;;;;;;;16.30;79.20;;;;;;5012408;28;19988;-85
2022/10/16 08:47:34;;;;;;;;;;;16.50;78.70;;;;;;5015227;28;20392;-83
2022/10/16 08:50:02;;;;;;;;;;;16.50;78.00;;;;;;5021085;28;19913;-85
2022/10/16 08:52:32;;;;;;;;;;;16.60;77.70;;;;;;5007567;28;19940;-87
2022/10/16 08:54:58;;;;;;;;;;;16.50;77.70;;;;;;5040675;28;19909;-76
2022/10/16 08:57:25;;;;;;;;;;;16.40;78.50;;;;;;5037706;28;19919;-79
2022/10/16 08:59:51;;;;;;;;;;;16.50;78.40;;;;;;5022479;28;19932;-85
2022/10/16 09:02:35;;;;;;;;;;;16.60;78.30;;;;;;5038785;28;19909;-80
2022/10/16 09:05:19;;;;;;;;;;;16.70;77.80;;;;;;5042564;28;19921;-77
2022/10/16 09:07:45;;;;;;;;;;;17.10;77.50;;;;;;5042186;28;20276;-84
2022/10/16 09:10:24;;;;;;;;;;;17.20;76.60;;;;;;5022887;28;19909;-84
2022/10/16 09:12:58;;;;;;;;;;;17.40;76.20;;;;;;5020101;28;19952;-83
2022/10/16 09:15:36;;;;;;;;;;;17.50;75.20;;;;;;5020368;28;20043;-83
2022/10/16 09:18:20;;;;;;;;;;;17.70;74.90;;;;;;5022776;28;19924;-82
2022/10/16 09:20:51;;;;;;;;;;;17.90;74.00;;;;;;5019576;28;19936;-83
2022/10/16 09:23:25;;;;;;;;;;;18.00;73.70;;;;;;5015949;28;20012;-80
2022/10/16 09:25:50;;;;;;;;;;;18.10;72.80;;;;;;5021018;28;19948;-83
2022/10/16 09:28:17;;;;;;;;;;;18.00;72.90;;;;;;5024489;28;19932;-80
2022/10/16 09:30:43;;;;;;;;;;;18.10;73.20;;;;;;5024826;28;19909;-81
2022/10/16 09:33:10;;;;;;;;;;;18.10;72.80;;;;;;5022684;28;19917;-82
2022/10/16 09:35:47;;;;;;;;;;;18.40;72.00;;;;;;5024237;28;19915;-77
2022/10/16 09:38:25;;;;;;;;;;;18.50;71.30;;;;;;5020138;28;19920;-78
2022/10/16 09:40:50;;;;;;;;;;;18.60;70.80;;;;;;5019930;28;19916;-76
2022/10/16 09:43:30;;;;;;;;;;;18.70;70.50;;;;;;5004209;28;19921;-77
2022/10/16 09:45:58;;;;;;;;;;;18.80;70.20;;;;;;5021606;28;19913;-76
2022/10/16 09:48:26;;;;;;;;;;;18.90;70.40;;;;;;5022741;28;19912;-77
2022/10/16 09:50:55;;;;;;;;;;;19.00;70.80;;;;;;5023674;28;19970;-76
2022/10/16 09:53:22;;;;;;;;;;;19.10;69.10;;;;;;5022734;28;19924;-77
2022/10/16 09:55:49;;;;;;;;;;;19.10;69.70;;;;;;5021004;28;19913;-75
2022/10/16 09:58:14;;;;;;;;;;;19.20;67.60;;;;;;5019655;28;20374;-76
2022/10/16 10:00:41;;;;;;;;;;;19.10;68.20;;;;;;5020426;28;19909;-76
2022/10/16 10:03:10;;;;;;;;;;;18.70;69.50;;;;;;5018029;28;19913;-76
2022/10/16 10:05:39;;;;;;;;;;;18.70;69.50;;;;;;5019502;28;19949;-76
2022/10/16 10:08:05;;;;;;;;;;;19.00;69.70;;;;;;5022257;28;19913;-76
2022/10/16 10:10:39;;;;;;;;;;;19.30;68.30;;;;;;5007366;28;19909;-78
2022/10/16 10:13:15;;;;;;;;;;;19.50;68.10;;;;;;5019572;28;19923;-77
2022/10/16 10:15:41;;;;;;;;;;;19.50;66.70;;;;;;5017012;28;19944;-76
2022/10/16 10:18:21;;;;;;;;;;;19.70;66.80;;;;;;5021122;28;20470;-77
2022/10/16 10:20:56;;;;;;;;;;;19.70;66.70;;;;;;5024252;28;19916;-77
2022/10/16 10:23:23;;;;;;;;;;;19.70;65.70;;;;;;5012374;28;19960;-76
2022/10/16 10:25:58;;;;;;;;;;;19.80;66.00;;;;;;5023309;28;19916;-76
2022/10/16 10:28:46;;;;;;;;;;;19.90;65.00;;;;;;5018710;28;20032;-75
2022/10/16 10:31:12;;;;;;;;;;;20.00;65.40;;;;;;5018198;28;19920;-77
2022/10/16 10:33:54;;;;;;;;;;;20.10;63.90;;;;;;5021855;28;20432;-77
2022/10/16 10:36:29;;;;;;;;;;;20.10;64.80;;;;;;5021267;28;19920;-76
2022/10/16 10:38:59;;;;;;;;;;;20.30;64.10;;;;;;5019536;28;19971;-77
2022/10/16 10:41:34;;;;;;;;;;;20.30;63.20;;;;;;5018761;28;19998;-75
2022/10/16 10:44:08;;;;;;;;;;;20.10;63.00;;;;;;5021176;28;19921;-75
2022/10/16 10:46:35;;;;;;;;;;;20.10;63.70;;;;;;5021284;28;20012;-75
2022/10/16 10:49:19;;;;;;;;;;;20.10;63.70;;;;;;5023602;28;20330;-78
2022/10/16 10:51:51;;;;;;;;;;;20.40;63.20;;;;;;5025456;28;19921;-75
2022/10/16 10:54:22;;;;;;;;;;;20.60;62.60;;;;;;5020910;28;19992;-75
2022/10/16 10:56:52;;;;;;;;;;;20.70;60.90;;;;;;5023416;28;19917;-77
2022/10/16 10:59:28;;;;;;;;;;;20.60;59.70;;;;;;5014931;28;19909;-75
2022/10/16 11:02:12;;;;;;;;;;;20.30;60.00;;;;;;5005300;28;19914;-74
2022/10/16 11:04:38;;;;;;;;;;;20.30;61.00;;;;;;5012560;28;20343;-77
2022/10/16 11:07:29;;;;;;;;;;;20.50;61.80;;;;;;5016889;28;19919;-76
2022/10/16 11:10:16;;;;;;;;;;;20.50;60.10;;;;;;5011508;28;19967;-76
2022/10/16 11:12:47;;;;;;;;;;;20.50;59.70;;;;;;5015104;28;19905;-79
2022/10/16 11:15:21;;;;;;;;;;;20.20;59.60;;;;;;5014466;28;19924;-75
2022/10/16 11:18:09;;;;;;;;;;;20.20;60.50;;;;;;5016742;28;19924;-77
2022/10/16 11:20:41;;;;;;;;;;;20.40;61.10;;;;;;4974722;28;19940;-77
2022/10/16 11:23:11;;;;;;;;;;;20.30;61.40;;;;;;5021435;28;19910;-75
2022/10/16 11:25:38;;;;;;;;;;;20.40;62.60;;;;;;5017562;28;19921;-75
2022/10/16 11:28:10;;;;;;;;;;;20.60;62.20;;;;;;5026280;28;19958;-78
2022/10/16 11:30:47;;;;;;;;;;;20.50;62.00;;;;;;5021518;28;19913;-76
2022/10/16 11:33:18;;;;;;;;;;;20.70;61.80;;;;;;5018192;28;19913;-76
2022/10/16 11:35:48;;;;;;;;;;;21.00;60.80;;;;;;5019634;28;19924;-76
2022/10/16 11:38:34;;;;;;;;;;;21.20;59.00;;;;;;5021304;28;19909;-77
2022/10/16 11:41:29;;;;;;;;;;;21.30;58.70;;;;;;5016088;28;19916;-77
2022/10/16 11:44:09;;;;;;;;;;;21.40;58.30;;;;;;5005735;28;19917;-76
2022/10/16 11:46:38;;;;;;;;;;;21.50;58.20;;;;;;5021816;28;20458;-75
2022/10/16 11:49:09;;;;;;;;;;;21.40;59.00;;;;;;5019797;28;20356;-83
2022/10/16 11:51:48;;;;;;;;;;;21.10;59.50;;;;;;5027235;28;19913;-79
2022/10/16 11:54:32;;;;;;;;;;;21.00;60.60;;;;;;5019115;28;19933;-78
2022/10/16 11:56:58;;;;;;;;;;;21.00;59.90;;;;;;5017030;28;19909;-80
2022/10/16 11:59:37;;;;;;;;;;;20.80;59.00;;;;;;5019929;28;20522;-79
2022/10/16 12:02:19;;;;;;;;;;;20.80;59.20;;;;;;5025383;28;20007;-81
2022/10/16 12:04:48;;;;;;;;;;;20.70;59.80;;;;;;5021140;28;19917;-78
2022/10/16 12:07:15;;;;;;;;;;;20.70;59.80;;;;;;5027219;28;20345;-80
2022/10/16 12:09:41;;;;;;;;;;;20.60;60.30;;;;;;5017337;28;19963;-79
2022/10/16 12:12:26;;;;;;;;;;;20.60;60.70;;;;;;5027236;28;20257;-79
2022/10/16 12:15:02;;;;;;;;;;;20.60;60.30;;;;;;5022536;28;19917;-79
2022/10/16 12:17:35;;;;;;;;;;;20.40;61.00;;;;;;5021589;28;19917;-79
2022/10/16 12:20:13;;;;;;;;;;;20.20;61.60;;;;;;5021465;28;20323;-79
2022/10/16 12:22:58;;;;;;;;;;;20.20;62.70;;;;;;5024704;28;20271;-80
2022/10/16 12:25:29;;;;;;;;;;;20.60;62.00;;;;;;5018537;28;19928;-80
2022/10/16 12:27:58;;;;;;;;;;;20.80;60.80;;;;;;5027922;28;19951;-78
2022/10/16 12:30:24;;;;;;;;;;;20.60;61.40;;;;;;5007653;28;19912;-78
2022/10/16 12:32:58;;;;;;;;;;;20.40;61.70;;;;;;5026965;28;19905;-78
2022/10/16 12:35:28;;;;;;;;;;;20.60;60.70;;;;;;5019950;28;19913;-78
2022/10/16 12:37:54;;;;;;;;;;;20.80;59.60;;;;;;5008336;28;19905;-77
2022/10/16 12:40:30;;;;;;;;;;;20.80;59.00;;;;;;5021676;28;19931;-77
2022/10/16 12:42:56;;;;;;;;;;;20.50;59.60;;;;;;5006842;28;19911;-78
2022/10/16 12:45:31;;;;;;;;;;;20.50;60.70;;;;;;5022469;28;19917;-75
2022/10/16 12:47:58;;;;;;;;;;;20.60;61.20;;;;;;5043647;28;19905;-75
2022/10/16 12:50:30;;;;;;;;;;;20.80;61.20;;;;;;5030964;28;19917;-79
2022/10/16 12:52:56;;;;;;;;;;;21.00;60.40;;;;;;5028980;28;19909;-78
2022/10/16 12:55:22;;;;;;;;;;;21.30;59.40;;;;;;5032648;28;19913;-77
2022/10/16 12:58:06;;;;;;;;;;;21.50;58.30;;;;;;5039390;28;20157;-79
2022/10/16 13:00:45;;;;;;;;;;;21.60;56.70;;;;;;5019622;28;19917;-79
2022/10/16 13:03:14;;;;;;;;;;;21.60;57.70;;;;;;5019557;28;19960;-79
2022/10/16 13:05:49;;;;;;;;;;;21.30;58.40;;;;;;5013164;28;19915;-78
2022/10/16 13:08:14;;;;;;;;;;;21.10;59.30;;;;;;5017650;28;19913;-76
2022/10/16 13:10:45;;;;;;;;;;;20.90;60.30;;;;;;5019480;28;19916;-78
2022/10/16 13:13:43;;;;;;;;;;;20.60;61.30;;;;;;5024028;28;19921;-79
2022/10/16 13:16:18;;;;;;;;;;;20.60;61.10;;;;;;4976046;28;19975;-80
2022/10/16 13:19:06;;;;;;;;;;;20.70;61.50;;;;;;5016755;28;20059;-81
2022/10/16 13:21:36;;;;;;;;;;;20.90;60.60;;;;;;5024813;28;20351;-79
2022/10/16 13:24:20;;;;;;;;;;;20.70;60.90;;;;;;5004284;28;20051;-77
2022/10/16 13:26:52;;;;;;;;;;;20.60;60.50;;;;;;5001226;28;19937;-79
2022/10/16 13:29:18;;;;;;;;;;;20.70;61.40;;;;;;5023410;28;20345;-77
2022/10/16 13:31:44;;;;;;;;;;;20.80;61.00;;;;;;5026486;28;19944;-78
2022/10/16 13:34:12;;;;;;;;;;;21.00;60.10;;;;;;5018637;28;19920;-77
2022/10/16 13:36:45;;;;;;;;;;;21.00;59.10;;;;;;5017903;28;20329;-79
2022/10/16 13:39:17;;;;;;;;;;;20.90;59.90;;;;;;5022613;28;20360;-79
2022/10/16 13:41:43;;;;;;;;;;;20.60;60.90;;;;;;5020537;28;19915;-80
2022/10/16 13:44:14;;;;;;;;;;;20.30;61.50;;;;;;5005545;28;19921;-81
2022/10/16 13:46:39;;;;;;;;;;;20.20;62.70;;;;;;5017822;28;20371;-81
2022/10/16 13:49:15;;;;;;;;;;;20.20;62.80;;;;;;5015045;28;19905;-81
2022/10/16 13:51:40;;;;;;;;;;;20.10;62.60;;;;;;5029633;28;20096;-81
2022/10/16 13:54:09;;;;;;;;;;;20.10;63.50;;;;;;5029466;28;19972;-81
2022/10/16 13:56:34;;;;;;;;;;;20.00;64.10;;;;;;5028598;28;19909;-76
2022/10/16 13:59:04;;;;;;;;;;;20.00;63.50;;;;;;5042756;28;19916;-81
2022/10/16 14:01:34;;;;;;;;;;;20.00;63.00;;;;;;5018573;28;20311;-78
2022/10/16 14:04:08;;;;;;;;;;;20.00;62.70;;;;;;5015604;28;19921;-77
2022/10/16 14:06:34;;;;;;;;;;;20.00;63.20;;;;;;5030757;28;19912;-76
2022/10/16 14:09:04;;;;;;;;;;;20.00;62.70;;;;;;5020169;28;19913;-83
2022/10/16 14:11:30;;;;;;;;;;;20.10;62.00;;;;;;5020616;28;19921;-79
2022/10/16 14:13:55;;;;;;;;;;;19.90;62.70;;;;;;5015045;28;19909;-86
2022/10/16 14:16:28;;;;;;;;;;;19.80;62.70;;;;;;5017741;28;20028;-80
2022/10/16 14:18:56;;;;;;;;;;;19.80;62.80;;;;;;4995621;28;19909;-80
2022/10/16 14:21:22;;;;;;;;;;;19.70;62.90;;;;;;5009914;28;19919;-80
2022/10/16 14:26:21;;;;;;;7.75;1.67;;;19.60;64.20;;;;;;5084750;27;20204;-80
2022/10/16 14:28:49;;;;;;;5.03;1.38;;;19.80;64.50;;;;;;5039957;28;20065;-81
2022/10/16 14:31:30;;;;;;;4.70;1.73;;;19.60;64.00;;;;;;5038510;28;20045;-78